createdAt,value
2022-11-08T00:01:33.514Z,14.27
2022-11-08T00:03:36.729Z,11.60
2022-11-08T00:05:57.404Z,10.10
2022-11-08T00:08:22.108Z,13.47
2022-11-08T00:10:42.706Z,9.43
2022-11-08T00:13:03.570Z,9.63
2022-11-08T00:15:09.378Z,7.67
2022-11-08T00:17:12.662Z,9.47
2022-11-08T00:19:15.651Z,16.25
2022-11-08T00:21:18.706Z,14.80
2022-11-08T00:23:21.781Z,12.10
2022-11-08T00:25:24.747Z,13.53
2022-11-08T00:27:28.593Z,14.60
2022-11-08T00:29:31.681Z,13.77
2022-11-08T00:31:36.061Z,10.03
2022-11-08T00:33:39.120Z,11.60
2022-11-08T00:35:42.068Z,13.87
2022-11-08T00:37:45.049Z,9.60
2022-11-08T00:39:48.435Z,12.83
2022-11-08T00:41:51.474Z,8.60
2022-11-08T00:43:54.464Z,8.68
2022-11-08T00:45:57.454Z,10.77
2022-11-08T00:48:01.809Z,12.43
2022-11-08T00:50:05.417Z,8.70
2022-11-08T00:52:08.562Z,9.17
2022-11-08T00:54:15.201Z,7.47
2022-11-08T00:56:18.365Z,8.37
2022-11-08T00:58:26.248Z,7.67
2022-11-08T01:00:30.530Z,6.90
2022-11-08T01:02:33.602Z,8.80
2022-11-08T01:04:38.000Z,9.00
2022-11-08T01:06:41.607Z,7.60
2022-11-08T01:08:44.953Z,7.20
2022-11-08T01:10:50.080Z,8.53
2022-11-08T01:12:53.044Z,10.50
2022-11-08T01:14:56.184Z,5.60
2022-11-08T01:16:59.252Z,5.83
2022-11-08T01:19:03.123Z,7.25
2022-11-08T01:21:08.052Z,7.70
2022-11-08T01:23:12.079Z,9.15
2022-11-08T01:25:15.014Z,8.73
2022-11-08T01:27:18.133Z,10.90
2022-11-08T01:29:21.249Z,6.53
2022-11-08T01:31:26.093Z,9.82
2022-11-08T01:33:29.274Z,6.75
2022-11-08T01:35:32.400Z,7.80
2022-11-08T01:37:36.730Z,5.33
2022-11-08T01:39:39.983Z,7.57
2022-11-08T01:41:43.238Z,8.82
2022-11-08T01:43:47.787Z,11.07
2022-11-08T01:46:38.555Z,10.07
2022-11-08T01:48:44.813Z,7.75
2022-11-08T01:50:47.987Z,11.23
2022-11-08T01:52:53.808Z,7.35
2022-11-08T01:55:10.523Z,7.57
2022-11-08T01:57:18.122Z,7.63
2022-11-08T01:59:21.093Z,7.63
2022-11-08T02:01:24.325Z,8.50
2022-11-08T02:03:28.235Z,6.83
2022-11-08T02:05:31.831Z,7.63
2022-11-08T02:07:35.630Z,9.38
2022-11-08T02:09:41.953Z,8.90
2022-11-08T02:11:45.506Z,9.80
2022-11-08T02:13:48.539Z,7.13
2022-11-08T02:15:51.860Z,9.00
2022-11-08T02:17:55.244Z,10.45
2022-11-08T02:19:58.340Z,8.40
2022-11-08T02:22:05.126Z,12.18
2022-11-08T02:24:11.114Z,6.13
2022-11-08T02:26:14.669Z,6.00
2022-11-08T02:28:18.099Z,8.88
2022-11-08T02:30:21.438Z,7.65
2022-11-08T02:32:25.533Z,8.80
2022-11-08T02:34:30.886Z,6.97
2022-11-08T02:36:33.902Z,6.43
2022-11-08T02:38:40.731Z,5.90
2022-11-08T02:40:48.618Z,7.03
2022-11-08T02:42:51.752Z,7.45
2022-11-08T02:44:54.817Z,6.00
2022-11-08T02:46:58.677Z,6.27
2022-11-08T02:49:01.585Z,7.20
2022-11-08T02:51:04.935Z,7.78
2022-11-08T02:53:09.319Z,5.05
2022-11-08T02:55:12.278Z,8.50
2022-11-08T02:57:16.683Z,9.35
2022-11-08T02:59:19.709Z,5.70
2022-11-08T03:01:22.856Z,7.32
2022-11-08T03:03:25.956Z,7.80
2022-11-08T03:05:29.820Z,4.75
2022-11-08T03:07:33.190Z,8.98
2022-11-08T03:09:36.151Z,5.80
2022-11-08T03:11:39.126Z,7.60
2022-11-08T03:13:43.462Z,5.35
2022-11-08T03:15:46.403Z,5.97
2022-11-08T03:17:49.389Z,8.23
2022-11-08T03:19:53.649Z,4.75
2022-11-08T03:21:56.808Z,6.72
2022-11-08T03:23:59.812Z,5.53
2022-11-08T03:26:03.864Z,5.25
2022-11-08T03:28:08.906Z,10.52
2022-11-08T03:30:13.561Z,6.05
2022-11-08T03:32:17.381Z,5.80
2022-11-08T03:34:20.361Z,8.85
2022-11-08T03:36:23.359Z,7.90
2022-11-08T03:38:26.662Z,6.45
2022-11-08T03:40:29.870Z,4.50
2022-11-08T03:42:32.888Z,4.93
2022-11-08T03:44:35.903Z,7.72
2022-11-08T03:46:40.300Z,6.07
2022-11-08T03:48:43.572Z,5.13
2022-11-08T03:50:46.807Z,8.18
2022-11-08T03:52:51.253Z,4.50
2022-11-08T03:54:54.346Z,6.15
2022-11-08T03:56:57.269Z,3.90
2022-11-08T03:59:00.327Z,4.78
2022-11-08T04:01:05.034Z,6.40
2022-11-08T04:03:10.658Z,7.95
2022-11-08T04:05:14.608Z,6.78
2022-11-08T04:07:17.572Z,6.78
2022-11-08T04:09:21.805Z,7.75
2022-11-08T04:11:42.456Z,6.80
2022-11-08T04:14:03.138Z,6.45
2022-11-08T04:16:06.748Z,7.88
2022-11-08T04:18:28.729Z,4.68
2022-11-08T04:20:49.782Z,5.07
2022-11-08T04:22:52.947Z,4.50
2022-11-08T04:24:55.954Z,6.18
2022-11-08T04:26:58.908Z,4.60
2022-11-08T04:29:03.055Z,6.15
2022-11-08T04:31:07.542Z,5.13
2022-11-08T04:33:11.864Z,4.45
2022-11-08T04:35:14.880Z,5.10
2022-11-08T04:37:17.825Z,5.82
2022-11-08T04:39:20.760Z,5.32
2022-11-08T04:41:25.402Z,6.82
2022-11-08T04:43:28.386Z,4.82
2022-11-08T04:45:31.418Z,4.60
2022-11-08T04:47:39.394Z,4.65
2022-11-08T04:49:45.729Z,5.85
2022-11-08T04:51:48.975Z,6.20
2022-11-08T04:53:52.115Z,5.95
2022-11-08T04:56:00.605Z,7.07
2022-11-08T04:58:03.693Z,8.27
2022-11-08T05:00:09.237Z,6.35
2022-11-08T05:02:12.350Z,6.25
2022-11-08T05:04:15.835Z,9.65
2022-11-08T05:06:21.641Z,4.05
2022-11-08T05:08:24.607Z,8.90
2022-11-08T05:10:27.614Z,6.28
2022-11-08T05:12:30.590Z,5.78
2022-11-08T05:14:33.730Z,4.75
2022-11-08T05:16:36.947Z,3.92
2022-11-08T05:18:41.813Z,5.32
2022-11-08T05:21:02.473Z,4.65
2022-11-08T05:23:24.648Z,6.18
2022-11-08T05:25:27.711Z,5.07
2022-11-08T05:27:30.998Z,5.68
2022-11-08T05:29:38.662Z,4.80
2022-11-08T05:31:45.204Z,4.30
2022-11-08T05:33:49.142Z,6.40
2022-11-08T05:35:52.788Z,5.18
2022-11-08T05:37:55.831Z,5.53
2022-11-08T05:40:00.236Z,5.55
2022-11-08T05:42:05.326Z,6.07
2022-11-08T05:44:08.344Z,5.30
2022-11-08T05:46:11.687Z,7.00
2022-11-08T05:48:14.901Z,5.28
2022-11-08T05:50:19.534Z,7.55
2022-11-08T05:52:22.852Z,5.55
2022-11-08T05:54:26.051Z,5.20
2022-11-08T05:56:30.468Z,5.82
2022-11-08T05:58:35.053Z,5.68
2022-11-08T06:00:38.094Z,5.28
2022-11-08T06:02:41.481Z,5.43
2022-11-08T06:04:44.472Z,5.43
2022-11-08T06:06:47.510Z,8.05
2022-11-08T06:08:52.929Z,4.80
2022-11-08T06:11:03.203Z,8.52
2022-11-08T06:13:07.676Z,6.25
2022-11-08T06:15:11.443Z,5.50
2022-11-08T06:17:14.457Z,5.95
2022-11-08T06:19:17.599Z,5.57
2022-11-08T06:21:21.758Z,7.65
2022-11-08T06:23:25.030Z,8.48
2022-11-08T06:25:28.386Z,6.18
2022-11-08T06:27:32.057Z,6.75
2022-11-08T06:29:36.500Z,7.28
2022-11-08T06:31:43.065Z,6.82
2022-11-08T06:33:46.582Z,7.65
2022-11-08T06:35:49.826Z,5.53
2022-11-08T06:37:56.485Z,6.03
2022-11-08T06:40:03.056Z,9.45
2022-11-08T06:42:06.191Z,5.93
2022-11-08T06:44:09.417Z,6.82
2022-11-08T06:46:13.955Z,6.30
2022-11-08T06:48:17.093Z,5.95
2022-11-08T06:50:20.114Z,4.65
2022-11-08T06:52:23.177Z,8.57
2022-11-08T06:54:27.094Z,7.80
2022-11-08T06:56:30.326Z,6.82
2022-11-08T06:58:33.449Z,6.43
2022-11-08T07:00:36.488Z,7.82
2022-11-08T07:02:41.017Z,6.47
2022-11-08T07:04:44.052Z,8.00
2022-11-08T07:06:47.085Z,8.25
2022-11-08T07:08:51.117Z,8.00
2022-11-08T07:10:55.577Z,7.97
2022-11-08T07:13:00.169Z,5.88
2022-11-08T07:15:03.400Z,8.00
2022-11-08T07:17:06.433Z,9.35
2022-11-08T07:19:11.095Z,8.30
2022-11-08T07:21:14.261Z,8.65
2022-11-08T07:23:17.333Z,8.05
2022-11-08T07:25:20.625Z,8.40
2022-11-08T07:27:23.652Z,8.43
2022-11-08T07:29:26.576Z,8.60
2022-11-08T07:31:29.686Z,11.38
2022-11-08T07:33:32.661Z,9.00
2022-11-08T07:35:37.117Z,9.07
2022-11-08T07:37:40.340Z,8.35
2022-11-08T07:39:43.347Z,7.25
2022-11-08T07:41:46.549Z,6.35
2022-11-08T07:43:49.608Z,7.15
2022-11-08T07:45:57.371Z,10.90
2022-11-08T07:48:00.944Z,6.72
2022-11-08T07:50:04.460Z,7.80
2022-11-08T07:52:08.918Z,8.95
2022-11-08T07:54:12.235Z,7.63
2022-11-08T07:56:15.240Z,7.97
2022-11-08T07:58:18.601Z,9.00
2022-11-08T08:00:21.907Z,10.70
2022-11-08T08:02:25.100Z,8.55
2022-11-08T08:04:30.111Z,7.80
2022-11-08T08:06:33.153Z,9.45
2022-11-08T08:08:37.565Z,9.27
2022-11-08T08:10:41.213Z,6.10
2022-11-08T08:12:44.176Z,8.03
2022-11-08T08:14:47.202Z,6.50
2022-11-08T08:16:51.069Z,9.15
2022-11-08T08:18:56.557Z,9.60
2022-11-08T08:21:00.039Z,7.90
2022-11-08T08:23:02.969Z,7.87
2022-11-08T08:25:08.564Z,10.23
2022-11-08T08:27:12.266Z,11.90
2022-11-08T08:29:15.361Z,10.10
2022-11-08T08:31:18.485Z,13.53
2022-11-08T08:33:30.043Z,15.73
2022-11-08T08:35:34.870Z,19.63
2022-11-08T08:37:37.901Z,15.03
2022-11-08T08:39:40.873Z,14.60
2022-11-08T08:41:45.250Z,12.17
2022-11-08T08:43:48.327Z,9.13
2022-11-08T08:45:51.348Z,7.90
2022-11-08T08:47:54.783Z,8.20
2022-11-08T08:49:57.822Z,6.60
2022-11-08T08:52:00.905Z,6.83
2022-11-08T08:54:04.058Z,6.53
2022-11-08T08:56:07.979Z,6.53
2022-11-08T08:58:12.383Z,6.20
2022-11-08T09:02:42.482Z,10.73
2022-11-08T09:04:45.969Z,8.70
2022-11-08T09:06:49.123Z,13.73
2022-11-08T09:08:52.179Z,7.23
2022-11-08T09:10:55.602Z,10.27
2022-11-08T09:12:58.707Z,8.73
2022-11-08T09:15:03.183Z,8.37
2022-11-08T09:17:06.287Z,8.03
2022-11-08T09:19:09.324Z,7.17
2022-11-08T09:21:12.439Z,8.73
2022-11-08T09:23:16.832Z,8.03
2022-11-08T09:25:20.473Z,7.23
2022-11-08T09:27:23.668Z,8.17
2022-11-08T09:29:27.032Z,6.90
2022-11-08T09:31:31.452Z,5.30
2022-11-08T09:33:34.564Z,6.20
2022-11-08T09:35:37.587Z,7.87
2022-11-08T09:37:42.291Z,9.00
2022-11-08T09:39:47.256Z,17.00
2022-11-08T09:42:09.801Z,7.50
2022-11-08T09:44:26.732Z,9.57
2022-11-08T09:46:36.848Z,6.33
2022-11-08T09:48:42.923Z,4.90
2022-11-08T09:50:46.475Z,9.00
2022-11-08T09:52:52.510Z,8.87
2022-11-08T09:55:05.826Z,5.57
2022-11-08T09:57:15.938Z,5.43
2022-11-08T09:59:31.345Z,5.47
2022-11-08T10:01:37.153Z,6.53
2022-11-08T10:03:40.548Z,8.87
2022-11-08T10:05:45.878Z,9.50
2022-11-08T10:07:55.460Z,6.60
2022-11-08T10:10:14.719Z,7.83
2022-11-08T10:12:22.758Z,7.17
2022-11-08T10:14:34.024Z,5.10
2022-11-08T10:16:44.520Z,7.03
2022-11-08T10:19:06.689Z,8.13
2022-11-08T10:21:14.760Z,6.20
2022-11-08T10:23:22.637Z,5.50
2022-11-08T10:25:28.110Z,4.23
2022-11-08T10:27:34.576Z,8.53
2022-11-08T10:29:39.540Z,5.03
2022-11-08T10:31:44.119Z,6.10
2022-11-08T10:33:50.646Z,9.07
2022-11-08T10:36:02.164Z,5.20
2022-11-08T10:38:16.372Z,7.90
2022-11-08T10:40:25.678Z,6.30
2022-11-08T10:42:36.118Z,5.87
2022-11-08T10:44:39.425Z,7.13
2022-11-08T10:46:45.852Z,4.57
2022-11-08T10:48:48.865Z,7.00
2022-11-08T10:50:53.390Z,5.20
2022-11-08T10:52:59.921Z,5.20
2022-11-08T10:55:04.612Z,8.73
2022-11-08T10:57:07.854Z,4.83
2022-11-08T10:59:30.129Z,5.20
2022-11-08T11:01:33.204Z,4.83
2022-11-08T11:03:37.557Z,4.97
2022-11-08T11:05:43.118Z,7.13
2022-11-08T11:07:47.591Z,5.47
2022-11-08T11:09:50.563Z,7.10
2022-11-08T11:11:57.831Z,4.00
2022-11-08T11:14:10.820Z,4.50
2022-11-08T11:16:16.155Z,6.80
2022-11-08T11:18:26.897Z,7.83
2022-11-08T11:20:31.392Z,5.30
2022-11-08T11:22:34.941Z,5.30
2022-11-08T11:24:47.954Z,4.60
2022-11-08T11:27:01.929Z,3.43
2022-11-08T11:29:18.891Z,4.37
2022-11-08T11:31:22.522Z,4.50
2022-11-08T11:33:27.113Z,4.63
2022-11-08T11:35:37.310Z,4.17
2022-11-08T11:37:42.344Z,6.10
2022-11-08T11:39:55.114Z,5.00
2022-11-08T11:42:24.181Z,3.43
2022-11-08T11:44:29.493Z,5.03
2022-11-08T11:46:41.139Z,3.17
2022-11-08T11:48:47.762Z,5.23
2022-11-08T11:50:52.327Z,3.60
2022-11-08T11:52:56.050Z,4.83
2022-11-08T11:54:59.086Z,3.57
2022-11-08T11:57:05.252Z,3.80
2022-11-08T11:59:40.203Z,2.97
2022-11-08T12:01:53.950Z,3.70
2022-11-08T12:04:12.338Z,5.30
2022-11-08T12:06:30.699Z,4.27
2022-11-08T12:08:40.839Z,3.67
2022-11-08T12:10:58.238Z,3.47
2022-11-08T12:13:07.752Z,3.77
2022-11-08T12:15:15.365Z,4.30
2022-11-08T12:17:31.817Z,6.03
2022-11-08T12:19:41.647Z,4.30
2022-11-08T12:21:50.194Z,3.77
2022-11-08T12:24:05.590Z,3.83
2022-11-08T12:26:14.788Z,4.83
2022-11-08T12:28:42.041Z,4.50
2022-11-08T12:30:50.939Z,6.17
2022-11-08T12:33:08.174Z,8.47
2022-11-08T12:35:22.986Z,7.80
2022-11-08T12:37:34.870Z,5.37
2022-11-08T12:39:45.119Z,6.20
2022-11-08T12:41:57.045Z,4.60
2022-11-08T12:44:24.384Z,3.87
2022-11-08T12:46:29.697Z,3.17
2022-11-08T12:48:55.122Z,4.53
2022-11-08T12:51:06.727Z,4.20
2022-11-08T12:53:30.258Z,4.87
2022-11-08T12:55:36.305Z,6.30
2022-11-08T12:57:39.661Z,5.53
2022-11-08T12:59:45.343Z,3.43
2022-11-08T13:01:49.195Z,3.43
2022-11-08T13:04:05.872Z,3.23
2022-11-08T13:06:13.109Z,4.07
2022-11-08T13:08:25.944Z,2.67
2022-11-08T13:10:34.303Z,4.03
2022-11-08T13:12:45.612Z,3.17
2022-11-08T13:14:48.878Z,3.60
2022-11-08T13:17:23.026Z,3.50
2022-11-08T13:19:29.748Z,3.43
2022-11-08T13:21:43.070Z,4.00
2022-11-08T13:23:49.658Z,3.10
2022-11-08T13:25:53.250Z,3.57
2022-11-08T13:27:56.395Z,3.80
2022-11-08T13:30:04.032Z,4.50
2022-11-08T13:32:09.930Z,4.73
2022-11-08T13:34:40.380Z,2.73
2022-11-08T13:36:50.741Z,3.43
2022-11-08T13:39:02.229Z,10.57
2022-11-08T13:41:21.199Z,4.87
2022-11-08T13:43:27.674Z,3.63
2022-11-08T13:45:33.228Z,3.63
2022-11-08T13:47:59.631Z,3.27
2022-11-08T13:50:33.832Z,2.13
2022-11-08T13:52:45.683Z,7.20
2022-11-08T13:54:53.664Z,7.07
2022-11-08T13:56:57.344Z,4.30
2022-11-08T13:59:00.445Z,2.90
2022-11-08T14:01:04.987Z,3.33
2022-11-08T14:03:41.580Z,3.10
2022-11-08T14:05:46.455Z,2.43
2022-11-08T14:08:08.792Z,2.97
2022-11-08T14:10:19.476Z,3.67
2022-11-08T14:12:29.889Z,4.07
2022-11-08T14:14:41.569Z,3.40
2022-11-08T14:16:53.662Z,3.60
2022-11-08T14:19:07.291Z,3.70
2022-11-08T14:21:17.177Z,2.83
2022-11-08T14:23:26.987Z,5.53
2022-11-08T14:25:32.993Z,3.23
2022-11-08T14:27:38.525Z,6.37
2022-11-08T14:29:42.224Z,5.93
2022-11-08T14:31:45.748Z,4.20
2022-11-08T14:33:49.248Z,4.47
2022-11-08T14:35:57.134Z,7.53
2022-11-08T14:38:00.899Z,4.13
2022-11-08T14:40:04.574Z,2.97
2022-11-08T14:42:19.230Z,5.03
2022-11-08T14:44:22.896Z,5.30
2022-11-08T14:46:30.860Z,4.60
2022-11-08T14:48:34.344Z,8.83
2022-11-08T14:50:37.863Z,4.03
2022-11-08T14:52:41.385Z,5.03
2022-11-08T14:54:47.225Z,3.30
2022-11-08T14:56:50.425Z,2.87
2022-11-08T14:58:56.253Z,3.30
2022-11-08T15:01:00.843Z,4.17
2022-11-08T15:03:05.454Z,3.20
2022-11-08T15:05:34.643Z,4.87
2022-11-08T15:07:38.909Z,3.53
2022-11-08T15:09:41.923Z,3.60
2022-11-08T15:11:52.722Z,3.87
2022-11-08T15:14:00.137Z,2.80
2022-11-08T15:16:05.282Z,4.03
2022-11-08T15:18:15.613Z,6.03
2022-11-08T15:20:23.057Z,3.50
2022-11-08T15:22:28.443Z,5.23
2022-11-08T15:24:40.375Z,4.20
2022-11-08T15:27:02.378Z,3.43
2022-11-08T15:29:09.590Z,6.30
2022-11-08T15:31:14.831Z,3.33
2022-11-08T15:33:23.220Z,4.50
2022-11-08T15:35:33.722Z,5.73
2022-11-08T15:37:38.281Z,3.43
2022-11-08T15:39:41.449Z,4.60
2022-11-08T15:41:44.683Z,4.40
2022-11-08T15:43:50.122Z,3.57
2022-11-08T15:45:55.385Z,4.80
2022-11-08T15:48:03.477Z,11.60
2022-11-08T15:50:15.556Z,19.60
2022-11-08T15:52:21.468Z,17.00
2022-11-08T15:54:25.740Z,14.30
2022-11-08T15:56:28.770Z,12.47
2022-11-08T15:58:33.271Z,14.30
2022-11-08T16:00:38.396Z,25.83
2022-11-08T16:02:43.301Z,25.00
2022-11-08T16:04:46.502Z,12.73
2022-11-08T16:06:49.802Z,9.07
2022-11-08T16:08:52.927Z,20.30
2022-11-08T16:11:00.537Z,13.03
2022-11-08T16:13:04.099Z,18.33
2022-11-08T16:15:10.059Z,14.00
2022-11-08T16:17:15.186Z,11.13
2022-11-08T16:19:22.070Z,12.07
2022-11-08T16:21:25.203Z,11.60
2022-11-08T16:23:28.291Z,9.67
2022-11-08T16:25:35.193Z,11.20
2022-11-08T16:27:41.265Z,10.57
2022-11-08T16:29:44.327Z,9.77
2022-11-08T16:31:47.761Z,9.67
2022-11-08T16:33:53.943Z,9.13
2022-11-08T16:35:59.848Z,11.57
2022-11-08T16:38:02.886Z,11.47
2022-11-08T16:40:15.522Z,11.17
2022-11-08T16:42:18.667Z,9.40
2022-11-08T16:44:22.979Z,15.70
2022-11-08T16:46:26.221Z,13.40
2022-11-08T16:48:29.336Z,15.87
2022-11-08T16:50:32.535Z,12.30
2022-11-08T16:52:37.251Z,17.13
2022-11-08T16:54:40.682Z,16.50
2022-11-08T16:56:44.232Z,20.83
2022-11-08T16:58:47.339Z,12.30
2022-11-08T17:00:50.448Z,14.37
2022-11-08T17:02:54.473Z,12.90
2022-11-08T17:04:57.923Z,11.07
2022-11-08T17:07:01.264Z,13.17
2022-11-08T17:09:05.741Z,16.47
2022-11-08T17:11:08.965Z,10.57
2022-11-08T17:13:15.001Z,9.10
2022-11-08T17:15:20.467Z,10.07
2022-11-08T17:17:23.639Z,14.27
2022-11-08T17:19:26.821Z,12.10
2022-11-08T17:21:44.191Z,10.80
2022-11-08T17:23:48.416Z,18.73
2022-11-08T17:25:52.928Z,40.33
2022-11-08T17:27:55.971Z,47.00
2022-11-08T17:30:00.175Z,28.83
2022-11-08T17:32:03.408Z,28.87
2022-11-08T17:34:06.715Z,22.27
2022-11-08T17:36:11.546Z,18.83
2022-11-08T17:38:14.817Z,13.83
2022-11-08T17:40:18.142Z,13.93
2022-11-08T17:42:23.400Z,9.17
2022-11-08T17:44:26.671Z,13.47
2022-11-08T17:46:29.826Z,11.00
2022-11-08T17:48:34.301Z,12.23
2022-11-08T17:50:37.446Z,13.83
2022-11-08T17:52:40.510Z,14.83
2022-11-08T17:54:44.563Z,14.23
2022-11-08T17:56:50.049Z,23.10
2022-11-08T17:58:54.448Z,15.13
2022-11-08T18:00:59.321Z,19.90
2022-11-08T18:03:02.527Z,17.93
2022-11-08T18:05:06.393Z,22.53
2022-11-08T18:07:09.769Z,16.63
2022-11-08T18:09:12.988Z,14.90
2022-11-08T18:11:16.182Z,13.10
2022-11-08T18:13:20.280Z,16.30
2022-11-08T18:15:25.405Z,17.77
2022-11-08T18:17:28.579Z,14.53
2022-11-08T18:19:32.247Z,17.37
2022-11-08T18:21:35.582Z,14.50
2022-11-08T18:23:40.764Z,13.20
2022-11-08T18:25:48.422Z,18.73
2022-11-08T18:27:51.485Z,14.40
2022-11-08T18:29:54.824Z,15.47
2022-11-08T18:32:01.725Z,17.03
2022-11-08T18:34:04.976Z,15.03
2022-11-08T18:36:10.288Z,17.87
2022-11-08T18:38:14.426Z,16.10
2022-11-08T18:40:17.987Z,17.03
2022-11-08T18:42:21.108Z,21.93
2022-11-08T18:44:24.227Z,20.00
2022-11-08T18:46:28.935Z,16.23
2022-11-08T18:48:35.641Z,16.63
2022-11-08T18:50:38.805Z,17.90
2022-11-08T18:52:45.467Z,20.40
2022-11-08T18:54:48.652Z,26.10
2022-11-08T18:56:52.164Z,27.70
2022-11-08T18:58:55.310Z,19.63
2022-11-08T19:00:58.905Z,16.00
2022-11-08T19:03:02.144Z,18.07
2022-11-08T19:05:07.038Z,23.03
2022-11-08T19:07:10.198Z,24.70
2022-11-08T19:09:13.595Z,18.93
2022-11-08T19:11:20.534Z,12.67
2022-11-08T19:13:25.998Z,15.70
2022-11-08T19:15:29.149Z,22.57
2022-11-08T19:17:35.296Z,20.07
2022-11-08T19:19:38.388Z,17.20
2022-11-08T19:21:43.830Z,29.40
2022-11-08T19:23:47.430Z,35.13
2022-11-08T19:26:01.357Z,25.63
2022-11-08T19:28:05.877Z,32.80
2022-11-08T19:30:09.861Z,17.43
2022-11-08T19:32:13.113Z,14.20
2022-11-08T19:34:17.846Z,21.10
2022-11-08T19:36:23.052Z,17.60
2022-11-08T19:38:27.724Z,16.03
2022-11-08T19:40:32.642Z,26.47
2022-11-08T19:42:35.713Z,33.33
2022-11-08T19:44:38.972Z,23.60
2022-11-08T19:46:43.212Z,19.70
2022-11-08T19:48:48.061Z,16.93
2022-11-08T19:50:51.682Z,17.70
2022-11-08T19:52:55.424Z,16.63
2022-11-08T19:54:59.896Z,16.20
2022-11-08T19:57:04.840Z,16.87
2022-11-08T19:59:08.946Z,13.87
2022-11-08T20:01:14.652Z,19.00
2022-11-08T20:03:17.718Z,19.83
2022-11-08T20:05:20.846Z,11.67
2022-11-08T20:07:24.344Z,15.70
2022-11-08T20:09:30.820Z,22.20
2022-11-08T20:11:37.581Z,16.90
2022-11-08T20:13:40.704Z,18.60
2022-11-08T20:15:43.932Z,29.13
2022-11-08T20:17:47.399Z,30.53
2022-11-08T20:19:52.054Z,34.03
2022-11-08T20:21:56.508Z,48.60
2022-11-08T20:23:59.848Z,37.37
2022-11-08T20:26:03.652Z,24.10
2022-11-08T20:28:08.622Z,25.83
2022-11-08T20:30:12.985Z,33.63
2022-11-08T20:32:16.549Z,24.80
2022-11-08T20:34:19.773Z,20.33
2022-11-08T20:36:24.834Z,19.93
2022-11-08T20:38:28.306Z,23.20
2022-11-08T20:40:31.510Z,18.30
2022-11-08T20:42:34.668Z,39.87
2022-11-08T20:44:40.843Z,17.90
2022-11-08T20:46:43.987Z,22.13
2022-11-08T20:48:51.697Z,19.50
2022-11-08T20:50:58.040Z,15.90
2022-11-08T20:53:03.639Z,19.03
2022-11-08T20:55:07.268Z,20.60
2022-11-08T20:57:10.605Z,17.20
2022-11-08T20:59:14.850Z,16.67
2022-11-08T21:01:20.908Z,23.07
2022-11-08T21:03:24.852Z,22.73
2022-11-08T21:05:28.074Z,18.13
2022-11-08T21:08:01.998Z,30.80
2022-11-08T21:10:07.866Z,16.03
2022-11-08T21:12:17.527Z,13.90
2022-11-08T21:14:21.179Z,13.10
2022-11-08T21:16:30.974Z,15.33
2022-11-08T21:18:36.744Z,14.00
2022-11-08T21:20:40.191Z,13.50
2022-11-08T21:22:43.396Z,19.80
2022-11-08T21:24:47.629Z,11.87
2022-11-08T21:26:50.679Z,14.50
2022-11-08T21:28:53.793Z,13.60
2022-11-08T21:30:58.943Z,11.97
2022-11-08T21:33:03.522Z,15.83
2022-11-08T21:35:07.406Z,14.03
2022-11-08T21:37:13.195Z,15.20
2022-11-08T21:39:16.559Z,16.30
2022-11-08T21:41:19.609Z,14.20
2022-11-08T21:43:23.510Z,15.40
2022-11-08T21:45:26.935Z,13.90
2022-11-08T21:47:30.691Z,15.60
2022-11-08T21:49:35.176Z,15.87
2022-11-08T21:51:39.322Z,18.67
2022-11-08T21:53:52.383Z,16.70
2022-11-08T21:55:58.050Z,18.70
2022-11-08T21:58:02.614Z,16.63
2022-11-08T22:00:07.178Z,16.47
2022-11-08T22:02:11.732Z,18.90
2022-11-08T22:04:14.910Z,15.17
2022-11-08T22:06:21.468Z,12.10
2022-11-08T22:08:24.805Z,12.60
2022-11-08T22:10:28.209Z,15.30
2022-11-08T22:12:31.672Z,11.20
2022-11-08T22:14:35.357Z,12.97
2022-11-08T22:16:38.910Z,16.57
2022-11-08T22:19:03.691Z,15.83
2022-11-08T22:21:23.033Z,15.00
2022-11-08T22:23:27.949Z,12.80
2022-11-08T22:25:31.178Z,13.17
2022-11-08T22:27:34.949Z,13.00
2022-11-08T22:29:38.055Z,12.10
2022-11-08T22:31:42.354Z,15.47
2022-11-08T22:33:48.308Z,14.83
2022-11-08T22:35:51.584Z,15.03
2022-11-08T22:37:54.798Z,15.33
2022-11-08T22:39:59.681Z,15.00
2022-11-08T22:42:02.810Z,14.90
2022-11-08T22:44:11.750Z,15.63
2022-11-08T22:46:16.282Z,12.80
2022-11-08T22:48:19.796Z,15.00
2022-11-08T22:50:23.087Z,15.20
2022-11-08T22:52:26.240Z,14.00
2022-11-08T22:54:29.507Z,15.90
2022-11-08T22:56:34.011Z,15.30
2022-11-08T22:58:37.564Z,13.87
2022-11-08T23:00:42.739Z,14.37
2022-11-08T23:02:47.092Z,15.00
2022-11-08T23:04:50.378Z,15.70
2022-11-08T23:06:53.642Z,14.50
2022-11-08T23:08:56.971Z,13.43
2022-11-08T23:11:20.685Z,20.50
2022-11-08T23:13:42.709Z,12.60
2022-11-08T23:16:03.397Z,13.07
2022-11-08T23:18:06.814Z,11.90
2022-11-08T23:20:28.261Z,11.90
2022-11-08T23:22:49.100Z,15.33
2022-11-08T23:24:52.553Z,14.20
2022-11-08T23:27:13.074Z,13.23
2022-11-08T23:29:34.731Z,12.87
2022-11-08T23:31:37.853Z,11.20
2022-11-08T23:33:43.829Z,11.57
2022-11-08T23:36:00.711Z,15.40
2022-11-08T23:38:04.049Z,15.03
2022-11-08T23:40:26.848Z,13.40
2022-11-08T23:42:47.673Z,12.33
2022-11-08T23:44:52.099Z,13.77
2022-11-08T23:46:56.756Z,11.67
2022-11-08T23:48:59.772Z,11.60
2022-11-08T23:51:02.908Z,10.40
2022-11-08T23:53:06.333Z,13.60
2022-11-08T23:55:10.387Z,10.80
2022-11-08T23:57:13.336Z,11.07
2022-11-08T23:59:16.857Z,13.10
